Time,TemperatureF,DewpointF,PressureIn,WindDirection,WindDirectionDegrees,WindSpeedMPH,WindSpeedGustMPH,Humidity,HourlyPrecipIn,Conditions,Clouds,dailyrainin,SoftwareType,DateUTC
2013-07-15 12:22:00,91.6,52.9,29.65,West,259,1.1,2.9,27,-99.99,,,-99.99,WSDL version 342,2013-07-15 16:22:00,
2013-07-15 12:25:00,91.7,53.0,29.65,WNW,296,1.9,3.6,27,-99.99,,,-99.99,WSDL version 342,2013-07-15 16:25:00,
2013-07-15 12:26:00,91.7,53.0,29.65,WSW,238,2.5,3.6,27,-99.99,,,-99.99,WSDL version 342,2013-07-15 16:26:00,
2013-07-15 12:31:00,92.1,53.1,29.65,WNW,302,1.2,3.6,27,-99.99,,,-99.99,WSDL version 342,2013-07-15 16:31:00,
2013-07-15 12:32:00,92.2,53.5,29.65,NW,319,1.2,3.6,27,-99.99,,,-99.99,WSDL version 342,2013-07-15 16:32:00,
2013-07-15 12:40:00,92.8,51.9,29.65,South,180,1.8,7.6,25,1.20,,,1.20,WSDL version 342,2013-07-15 16:40:00,
2013-07-15 12:45:00,93.4,52.1,29.65,NNW,345,1.5,2.7,24,1.20,,,1.20,WSDL version 342,2013-07-15 16:45:00,
2013-07-15 12:50:00,93.8,50.4,29.62,NNW,335,1.8,2.9,22,1.20,,,1.20,WSDL version 342,2013-07-15 16:50:00,
2013-07-15 12:55:00,94.1,50.1,29.62,WSW,253,1.6,3.4,22,1.20,,,1.20,WSDL version 342,2013-07-15 16:55:00,
2013-07-15 13:00:00,94.8,49.1,29.62,WSW,255,1.9,4.0,21,1.20,,,1.20,WSDL version 342,2013-07-15 17:00:00,
2013-07-15 13:05:00,94.7,47.0,29.62,South,174,1.5,4.0,20,1.20,,,1.20,WSDL version 342,2013-07-15 17:05:00,
2013-07-15 13:10:00,95.2,47.5,29.62,NNW,343,2.1,3.8,20,-99.99,,,-99.99,WSDL version 342,2013-07-15 17:10:00,
2013-07-15 13:15:00,95.6,47.1,29.62,East,88,1.2,3.8,19,1.20,,,1.20,WSDL version 342,2013-07-15 17:15:00,
2013-07-15 13:20:00,96.4,48.5,29.62,WSW,257,2.0,4.7,19,1.20,,,1.20,WSDL version 342,2013-07-15 17:20:00,
2013-07-15 13:25:00,95.5,47.6,29.62,West,266,1.2,4.7,20,1.20,,,1.20,WSDL version 342,2013-07-15 17:25:00,
2013-07-15 13:30:00,96.1,47.5,29.62,WNW,293,1.5,3.1,20,-99.99,,,-99.99,WSDL version 342,2013-07-15 17:30:00,
2013-07-15 13:35:00,96.6,48.0,29.65,WSW,256,1.8,4.0,20,0.00,,,1.20,WSDL version 342,2013-07-15 17:35:00,
2013-07-15 13:40:00,97.3,47.1,29.65,SSW,194,2.6,4.0,17,0.00,,,1.20,WSDL version 342,2013-07-15 17:40:00,
2013-07-15 13:45:00,96.3,45.5,29.65,NW,309,1.6,5.8,18,0.00,,,1.20,WSDL version 342,2013-07-15 17:45:00,
2013-07-15 13:50:00,96.5,46.9,29.62,NNW,334,1.0,5.8,19,-99.99,,,-99.99,WSDL version 342,2013-07-15 17:50:00,
2013-07-15 13:55:00,97.3,46.3,29.62,West,281,1.8,3.4,18,0.00,,,1.20,WSDL version 342,2013-07-15 17:55:00,
2013-07-15 14:01:00,97.7,46.4,29.62,NW,307,2.0,3.6,18,-99.99,,,-99.99,WSDL version 342,2013-07-15 18:01:00,
2013-07-15 14:06:00,98.1,46.2,29.62,NW,325,2.0,3.6,17,-99.99,,,-99.99,WSDL version 342,2013-07-15 18:06:00,
2013-07-15 14:11:00,99.1,45.5,29.62,West,278,2.7,4.3,16,-99.99,,,-99.99,WSDL version 342,2013-07-15 18:11:00,
2013-07-15 14:16:00,98.7,45.3,29.62,WNW,293,2.1,4.3,17,-99.99,,,-99.99,WSDL version 342,2013-07-15 18:16:00,
2013-07-15 14:21:00,99.1,45.9,29.62,NNE,16,1.9,3.4,17,-99.99,,,-99.99,WSDL version 342,2013-07-15 18:21:00,
2013-07-15 14:26:00,99.4,45.7,29.62,West,273,2.2,4.3,16,-99.99,,,-99.99,WSDL version 342,2013-07-15 18:26:00,
2013-07-15 14:31:00,99.9,45.7,29.62,North,360,1.6,4.3,16,-99.99,,,-99.99,WSDL version 342,2013-07-15 18:31:00,
2013-07-15 14:37:00,98.5,45.7,29.62,NNW,331,1.3,2.9,17,-99.99,,,-99.99,WSDL version 342,2013-07-15 18:37:00,
2013-07-15 14:42:00,98.8,45.6,29.62,South,169,1.8,2.7,16,-99.99,,,-99.99,WSDL version 342,2013-07-15 18:42:00,
2013-07-15 14:47:00,100.0,45.8,29.62,WNW,293,2.1,3.1,16,-99.99,,,-99.99,WSDL version 342,2013-07-15 18:47:00,
2013-07-15 14:52:00,100.6,44.6,29.62,West,260,2.5,5.4,15,-99.99,,,-99.99,WSDL version 342,2013-07-15 18:52:00,
2013-07-15 14:57:00,100.8,44.7,29.62,West,274,2.0,5.4,15,-99.99,,,-99.99,WSDL version 342,2013-07-15 18:57:00,
2013-07-15 15:02:00,101.3,45.2,29.62,SW,225,1.5,4.7,15,-99.99,,,-99.99,WSDL version 342,2013-07-15 19:02:00,
2013-07-15 15:07:00,102.3,45.9,29.62,NW,315,1.9,4.3,15,-99.99,,,-99.99,WSDL version 342,2013-07-15 19:07:00,
2013-07-15 15:12:00,103.4,46.3,29.62,North,353,1.8,2.9,14,-99.99,,,-99.99,WSDL version 342,2013-07-15 19:12:00,
2013-07-15 15:17:00,103.5,45.0,29.59,West,259,2.4,4.3,14,-99.99,,,-99.99,WSDL version 342,2013-07-15 19:17:00,
2013-07-15 15:22:00,103.7,45.7,29.59,West,278,1.8,4.3,15,0.00,,,1.20,WSDL version 342,2013-07-15 19:22:00,
2013-07-15 15:27:00,103.2,44.8,29.59,East,86,2.4,3.8,14,-99.99,,,-99.99,WSDL version 342,2013-07-15 19:27:00,
2013-07-15 15:32:00,101.2,44.7,29.59,NNW,331,2.2,3.8,15,-99.99,,,-99.99,WSDL version 342,2013-07-15 19:32:00,
2013-07-15 15:38:00,98.4,43.7,29.59,WNW,293,1.8,3.1,16,-99.99,,,-99.99,WSDL version 342,2013-07-15 19:38:00,
2013-07-15 15:43:00,96.6,43.5,29.59,NNW,328,1.6,2.9,17,-99.99,,,-99.99,WSDL version 342,2013-07-15 19:43:00,
2013-07-15 15:48:00,95.1,44.0,29.59,NW,323,1.2,2.9,18,-99.99,,,-99.99,WSDL version 342,2013-07-15 19:48:00,
2013-07-15 15:53:00,93.7,43.9,29.59,NNW,330,0.9,2.0,18,-99.99,,,-99.99,WSDL version 342,2013-07-15 19:53:00,
2013-07-15 15:58:00,92.8,45.4,29.59,NW,315,0.1,2.0,21,-99.99,,,-99.99,WSDL version 342,2013-07-15 19:58:00,
2013-07-15 16:03:00,92.1,46.6,29.59,North,3,1.5,2.0,21,-99.99,,,-99.99,WSDL version 342,2013-07-15 20:03:00,
2013-07-15 16:08:00,92.6,49.2,29.59,WNW,285,0.3,2.0,23,-99.99,,,-99.99,WSDL version 342,2013-07-15 20:08:00,
2013-07-15 16:14:00,95.5,51.0,29.59,WNW,302,0.4,1.6,22,-99.99,,,-99.99,WSDL version 342,2013-07-15 20:14:00,
2013-07-15 16:19:00,98.2,50.0,29.59,SW,225,0.9,1.6,19,-99.99,,,-99.99,WSDL version 342,2013-07-15 20:19:00,
2013-07-15 16:26:00,100.1,47.8,29.59,WNW,285,1.3,2.0,16,-99.99,,,-99.99,WSDL version 342,2013-07-15 20:26:00,
2013-07-15 16:31:00,101.4,48.1,29.59,North,349,1.1,2.2,16,-99.99,,,-99.99,WSDL version 342,2013-07-15 20:31:00,
2013-07-15 16:36:00,101.7,47.1,29.59,West,270,1.3,2.2,16,-99.99,,,-99.99,WSDL version 342,2013-07-15 20:36:00,
2013-07-15 16:43:00,102.2,45.8,29.59,WSW,241,1.4,2.7,15,-99.99,,,-99.99,WSDL version 342,2013-07-15 20:43:00,
2013-07-15 16:48:00,102.3,44.6,29.56,NW,308,1.4,2.7,14,-99.99,,,-99.99,WSDL version 342,2013-07-15 20:48:00,
2013-07-15 16:54:00,102.5,46.1,29.56,NNW,338,0.9,2.5,15,-99.99,,,-99.99,WSDL version 342,2013-07-15 20:54:00,
2013-07-15 16:59:00,102.7,45.3,29.56,WNW,293,1.1,2.7,15,-99.99,,,-99.99,WSDL version 342,2013-07-15 20:59:00,
2013-07-15 17:05:00,102.1,45.8,29.56,NW,323,1.3,2.9,15,-99.99,,,-99.99,WSDL version 342,2013-07-15 21:05:00,
2013-07-15 17:10:00,101.3,45.1,29.56,WNW,283,1.2,2.9,15,-99.99,,,-99.99,WSDL version 342,2013-07-15 21:10:00,
2013-07-15 17:16:00,101.1,45.0,29.56,SW,235,1.3,2.7,15,-99.99,,,-99.99,WSDL version 342,2013-07-15 21:16:00,
2013-07-15 17:21:00,99.6,45.5,29.53,North,6,1.2,2.7,16,-99.99,,,-99.99,WSDL version 342,2013-07-15 21:21:00,
2013-07-15 17:26:00,97.2,44.2,29.53,NE,37,1.8,2.2,17,-99.99,,,-99.99,WSDL version 342,2013-07-15 21:26:00,
2013-07-15 17:31:00,94.7,44.6,29.53,West,274,0.4,2.2,18,-99.99,,,-99.99,WSDL version 342,2013-07-15 21:31:00,
2013-07-15 17:36:00,93.7,45.3,29.56,NNW,331,0.6,2.0,20,-99.99,,,-99.99,WSDL version 342,2013-07-15 21:36:00,
2013-07-15 17:42:00,93.5,47.8,29.56,NW,304,0.9,1.6,21,-99.99,,,-99.99,WSDL version 342,2013-07-15 21:42:00,
2013-07-15 17:47:00,94.3,49.7,29.56,NW,306,0.2,1.6,22,-99.99,,,-99.99,WSDL version 342,2013-07-15 21:47:00,
2013-07-15 17:52:00,94.0,49.4,29.56,NW,315,0.0,1.3,22,-99.99,,,-99.99,WSDL version 342,2013-07-15 21:52:00,
2013-07-15 17:57:00,92.9,48.5,29.56,NW,315,0.0,1.1,22,-99.99,,,-99.99,WSDL version 342,2013-07-15 21:57:00,
2013-07-15 18:02:00,91.4,49.0,29.56,NW,315,0.0,0.0,25,-99.99,,,-99.99,WSDL version 342,2013-07-15 22:02:00,
2013-07-15 18:08:00,90.4,51.7,29.53,NW,315,0.0,0.0,27,-99.99,,,-99.99,WSDL version 342,2013-07-15 22:08:00,
2013-07-15 18:13:00,90.2,52.3,29.53,NW,315,0.0,0.0,28,-99.99,,,-99.99,WSDL version 342,2013-07-15 22:13:00,
2013-07-15 18:18:00,90.1,52.7,29.56,West,270,0.4,1.1,28,-99.99,,,-99.99,WSDL version 342,2013-07-15 22:18:00,
2013-07-15 18:23:00,90.3,53.5,29.56,West,270,0.2,1.6,29,-99.99,,,-99.99,WSDL version 342,2013-07-15 22:23:00,
2013-07-15 18:29:00,90.8,54.2,29.56,West,273,0.0,1.3,29,-99.99,,,-99.99,WSDL version 342,2013-07-15 22:29:00,
2013-07-15 18:34:00,91.4,54.7,29.56,WNW,289,0.1,1.3,29,-99.99,,,-99.99,WSDL version 342,2013-07-15 22:34:00,
2013-07-15 18:40:00,92.1,54.7,29.56,NW,315,1.0,1.6,29,-99.99,,,-99.99,WSDL version 342,2013-07-15 22:40:00,
2013-07-15 18:45:00,92.9,55.5,29.56,West,260,0.0,1.6,28,-99.99,,,-99.99,WSDL version 342,2013-07-15 22:45:00,
2013-07-15 18:51:00,93.3,54.6,29.56,NW,315,0.0,1.6,27,0.00,,,1.20,WSDL version 342,2013-07-15 22:51:00,
2013-07-15 18:56:00,93.1,54.2,29.56,WNW,293,0.4,1.6,27,0.00,,,1.20,WSDL version 342,2013-07-15 22:56:00,
2013-07-15 19:01:00,91.9,53.2,29.56,WNW,293,0.0,1.3,27,0.00,,,1.20,WSDL version 342,2013-07-15 23:01:00,
2013-07-15 19:06:00,90.9,52.5,29.56,West,270,0.0,1.1,28,0.00,,,1.20,WSDL version 342,2013-07-15 23:06:00,
2013-07-15 19:11:00,90.5,53.0,29.56,West,278,0.0,1.1,28,0.00,,,1.20,WSDL version 342,2013-07-15 23:11:00,
2013-07-15 19:16:00,90.1,52.7,29.56,WNW,293,0.0,1.3,28,0.00,,,1.20,WSDL version 342,2013-07-15 23:16:00,
2013-07-15 19:21:00,89.7,52.3,29.56,WNW,283,0.0,1.3,28,0.00,,,1.20,WSDL version 342,2013-07-15 23:21:00,
2013-07-15 19:26:00,89.2,52.9,29.56,WNW,293,0.7,1.6,29,0.00,,,1.20,WSDL version 342,2013-07-15 23:26:00,
2013-07-15 19:31:00,88.9,52.6,29.56,NW,315,0.5,1.6,29,-99.99,,,-99.99,WSDL version 342,2013-07-15 23:31:00,
2013-07-15 19:36:00,88.1,52.5,29.56,NW,315,0.1,1.3,30,0.00,,,1.20,WSDL version 342,2013-07-15 23:36:00,
2013-07-15 19:41:00,87.6,52.4,29.56,NNW,338,0.7,1.6,30,0.00,,,1.20,WSDL version 342,2013-07-15 23:41:00,
2013-07-15 19:46:00,87.0,52.3,29.56,NNW,340,0.0,1.6,31,0.00,,,1.20,WSDL version 342,2013-07-15 23:46:00,
2013-07-15 19:51:00,86.7,53.0,29.56,NNW,338,0.0,1.1,32,0.00,,,1.20,WSDL version 342,2013-07-15 23:51:00,
2013-07-15 19:56:00,86.3,53.2,29.56,NNW,338,0.0,0.0,33,0.00,,,1.20,WSDL version 342,2013-07-15 23:56:00,
2013-07-15 20:01:00,85.9,53.7,29.56,NW,325,0.0,0.9,33,0.00,,,1.20,WSDL version 342,2013-07-16 00:01:00,
2013-07-15 20:06:00,85.5,53.7,29.56,NW,315,0.0,0.9,34,0.00,,,1.20,WSDL version 342,2013-07-16 00:06:00,
2013-07-15 20:11:00,84.8,54.2,29.56,WNW,293,0.3,1.6,35,0.00,,,1.20,WSDL version 342,2013-07-16 00:11:00,
2013-07-15 20:16:00,84.3,54.5,29.56,West,270,0.0,1.6,37,0.00,,,1.20,WSDL version 342,2013-07-16 00:16:00,
2013-07-15 20:21:00,83.7,55.7,29.56,West,270,0.0,0.9,39,0.00,,,1.20,WSDL version 342,2013-07-16 00:21:00,
2013-07-15 20:27:00,83.2,55.9,29.56,WNW,293,0.0,1.1,40,0.00,,,1.20,WSDL version 342,2013-07-16 00:27:00,
2013-07-15 20:32:00,82.7,56.2,29.56,WNW,293,0.0,1.1,41,0.00,,,1.20,WSDL version 342,2013-07-16 00:32:00,
2013-07-15 20:37:00,82.1,56.3,29.56,WNW,293,0.0,1.1,42,0.00,,,1.20,WSDL version 342,2013-07-16 00:37:00,
2013-07-15 20:43:00,81.6,56.3,29.56,WNW,293,1.0,1.3,42,0.00,,,1.20,WSDL version 342,2013-07-16 00:43:00,
2013-07-15 20:48:00,81.1,56.5,29.59,WNW,293,0.0,2.0,44,0.00,,,1.20,WSDL version 342,2013-07-16 00:48:00,
2013-07-15 20:53:00,80.6,57.8,29.59,WNW,293,0.0,2.0,47,-99.99,,,-99.99,WSDL version 342,2013-07-16 00:53:00,
2013-07-15 20:59:00,80.2,58.7,29.59,WNW,293,0.0,1.1,49,0.00,,,1.20,WSDL version 342,2013-07-16 00:59:00,
2013-07-15 21:04:00,79.8,59.7,29.59,WNW,293,0.0,1.1,51,0.00,,,1.20,WSDL version 342,2013-07-16 01:04:00,
2013-07-15 21:09:00,79.5,60.3,29.59,WNW,293,0.0,0.0,52,0.00,,,1.20,WSDL version 342,2013-07-16 01:09:00,
2013-07-15 21:14:00,79.3,61.0,29.59,WNW,293,0.0,0.0,54,0.00,,,1.20,WSDL version 342,2013-07-16 01:14:00,
2013-07-15 21:19:00,79.1,61.2,29.59,WNW,293,0.0,0.0,55,-99.99,,,-99.99,WSDL version 342,2013-07-16 01:19:00,
2013-07-15 21:25:00,78.8,61.4,29.59,WNW,293,0.0,1.1,56,-99.99,,,-99.99,WSDL version 342,2013-07-16 01:25:00,
2013-07-15 21:30:00,78.6,62.0,29.59,WNW,293,0.0,1.3,57,0.00,,,1.20,WSDL version 342,2013-07-16 01:30:00,
2013-07-15 21:36:00,78.3,62.0,29.59,WNW,293,0.0,1.3,58,0.00,,,1.20,WSDL version 342,2013-07-16 01:36:00,
2013-07-15 21:41:00,78.1,62.5,29.59,WNW,293,0.0,1.3,59,0.00,,,1.20,WSDL version 342,2013-07-16 01:41:00,
2013-07-15 21:46:00,77.9,62.3,29.59,WNW,293,0.0,1.3,59,0.00,,,1.20,WSDL version 342,2013-07-16 01:46:00,
2013-07-15 21:51:00,77.7,62.3,29.59,WNW,293,0.0,1.3,59,0.00,,,1.20,WSDL version 342,2013-07-16 01:51:00,
2013-07-15 21:56:00,77.6,62.8,29.59,WNW,293,0.0,0.0,61,0.00,,,1.20,WSDL version 342,2013-07-16 01:56:00,
2013-07-15 22:01:00,77.4,63.0,29.59,WNW,293,0.0,0.0,62,0.00,,,1.20,WSDL version 342,2013-07-16 02:01:00,
2013-07-15 22:06:00,77.1,63.3,29.59,WNW,293,0.0,0.0,63,0.00,,,1.20,WSDL version 342,2013-07-16 02:06:00,
2013-07-15 22:11:00,76.9,63.0,29.59,WNW,293,0.2,1.3,62,0.00,,,1.20,WSDL version 342,2013-07-16 02:11:00,
2013-07-15 22:16:00,76.7,63.0,29.59,WNW,293,0.0,1.3,63,0.00,,,1.20,WSDL version 342,2013-07-16 02:16:00,
2013-07-15 22:21:00,76.5,63.2,29.59,WNW,293,0.0,1.1,64,0.00,,,1.20,WSDL version 342,2013-07-16 02:21:00,
2013-07-15 22:26:00,76.3,63.3,29.59,WNW,293,0.0,1.1,64,0.00,,,1.20,WSDL version 342,2013-07-16 02:26:00,
2013-07-15 22:31:00,76.1,63.6,29.59,WNW,293,0.0,0.0,66,0.00,,,1.20,WSDL version 342,2013-07-16 02:31:00,
2013-07-15 22:36:00,76.0,63.9,29.59,WNW,293,0.0,0.0,67,0.00,,,1.20,WSDL version 342,2013-07-16 02:36:00,
2013-07-15 22:42:00,75.8,64.1,29.59,WNW,293,0.0,0.0,67,0.00,,,1.20,WSDL version 342,2013-07-16 02:42:00,
2013-07-15 22:49:00,75.6,64.6,29.59,WNW,293,0.0,0.0,69,-99.99,,,-99.99,WSDL version 342,2013-07-16 02:49:00,
2013-07-15 22:54:00,75.5,64.6,29.59,WNW,293,0.0,0.0,69,-99.99,,,-99.99,WSDL version 342,2013-07-16 02:54:00,
2013-07-15 22:59:00,75.4,64.9,29.59,WNW,293,0.0,0.0,70,-99.99,,,-99.99,WSDL version 342,2013-07-16 02:59:00,
2013-07-15 23:04:00,75.2,64.8,29.62,WNW,293,0.0,0.0,70,-99.99,,,-99.99,WSDL version 342,2013-07-16 03:04:00,
2013-07-15 23:09:00,75.2,64.8,29.62,WNW,293,0.0,0.0,70,-99.99,,,-99.99,WSDL version 342,2013-07-16 03:09:00,
2013-07-15 23:14:00,75.2,65.1,29.62,WNW,293,0.0,0.0,72,-99.99,,,-99.99,WSDL version 342,2013-07-16 03:14:00,
2013-07-15 23:19:00,75.0,65.4,29.62,WNW,293,0.0,0.0,72,-99.99,,,-99.99,WSDL version 342,2013-07-16 03:19:00,
2013-07-15 23:24:00,75.0,65.7,29.62,WNW,293,0.0,0.0,73,-99.99,,,-99.99,WSDL version 342,2013-07-16 03:24:00,
2013-07-15 23:31:00,74.8,65.5,29.62,WNW,293,0.0,0.0,73,-99.99,,,-99.99,WSDL version 342,2013-07-16 03:31:00,
2013-07-15 23:36:00,74.7,65.4,29.62,WNW,293,0.0,0.0,73,-99.99,,,-99.99,WSDL version 342,2013-07-16 03:36:00,
2013-07-15 23:41:00,74.5,65.6,29.62,WNW,293,0.0,0.0,74,-99.99,,,-99.99,WSDL version 342,2013-07-16 03:41:00,
2013-07-15 23:49:00,74.3,65.7,29.62,WNW,293,0.0,1.3,75,0.00,,,1.20,WSDL version 342,2013-07-16 03:49:00,
2013-07-15 23:54:00,74.2,66.1,29.62,WNW,293,0.0,1.3,76,0.00,,,1.20,WSDL version 342,2013-07-16 03:54:00,
2013-07-15 23:59:00,74.1,66.1,29.62,WNW,293,0.0,0.0,76,0.00,,,1.20,WSDL version 342,2013-07-16 03:59:00,